sensor_id;sensor_type;location;lat;lon;timestamp;temperature;humidity
42227;DHT22;27892;52.378;13.122;2023-10-19T00:02:08;10.50;57.10
42227;DHT22;27892;52.378;13.122;2023-10-19T00:04:34;10.40;56.70
42227;DHT22;27892;52.378;13.122;2023-10-19T00:07:02;10.50;56.50
42227;DHT22;27892;52.378;13.122;2023-10-19T00:09:30;10.60;56.50
42227;DHT22;27892;52.378;13.122;2023-10-19T00:12:03;10.40;56.40
42227;DHT22;27892;52.378;13.122;2023-10-19T00:14:28;10.60;56.40
42227;DHT22;27892;52.378;13.122;2023-10-19T00:16:54;10.60;56.60
42227;DHT22;27892;52.378;13.122;2023-10-19T00:19:26;10.60;56.40
42227;DHT22;27892;52.378;13.122;2023-10-19T00:21:54;10.50;56.30
42227;DHT22;27892;52.378;13.122;2023-10-19T00:24:33;10.40;56.80
42227;DHT22;27892;52.378;13.122;2023-10-19T00:26:59;10.50;56.90
42227;DHT22;27892;52.378;13.122;2023-10-19T00:29:31;10.50;56.80
42227;DHT22;27892;52.378;13.122;2023-10-19T00:31:59;10.50;56.60
42227;DHT22;27892;52.378;13.122;2023-10-19T00:34:26;10.50;56.60
42227;DHT22;27892;52.378;13.122;2023-10-19T00:36:54;10.40;56.50
42227;DHT22;27892;52.378;13.122;2023-10-19T00:39:22;10.10;56.90
42227;DHT22;27892;52.378;13.122;2023-10-19T00:41:49;10.20;57.30
42227;DHT22;27892;52.378;13.122;2023-10-19T00:44:17;10.30;57.10
42227;DHT22;27892;52.378;13.122;2023-10-19T00:47:03;10.50;56.90
42227;DHT22;27892;52.378;13.122;2023-10-19T00:49:29;10.50;56.80
42227;DHT22;27892;52.378;13.122;2023-10-19T00:51:57;10.30;56.70
42227;DHT22;27892;52.378;13.122;2023-10-19T00:54:39;10.20;57.30
42227;DHT22;27892;52.378;13.122;2023-10-19T00:57:17;10.20;57.20
42227;DHT22;27892;52.378;13.122;2023-10-19T00:59:47;10.30;57.10
42227;DHT22;27892;52.378;13.122;2023-10-19T01:02:20;10.40;57.00
42227;DHT22;27892;52.378;13.122;2023-10-19T01:04:53;10.10;56.70
42227;DHT22;27892;52.378;13.122;2023-10-19T01:07:27;10.20;57.20
42227;DHT22;27892;52.378;13.122;2023-10-19T01:10:00;10.30;57.10
42227;DHT22;27892;52.378;13.122;2023-10-19T01:12:28;10.30;57.00
42227;DHT22;27892;52.378;13.122;2023-10-19T01:17:41;10.40;56.80
42227;DHT22;27892;52.378;13.122;2023-10-19T01:20:14;10.20;56.90
42227;DHT22;27892;52.378;13.122;2023-10-19T01:23:04;10.30;57.00
42227;DHT22;27892;52.378;13.122;2023-10-19T01:25:45;10.30;56.60
42227;DHT22;27892;52.378;13.122;2023-10-19T01:28:24;10.40;56.60
42227;DHT22;27892;52.378;13.122;2023-10-19T01:30:54;10.30;56.70
42227;DHT22;27892;52.378;13.122;2023-10-19T01:33:22;10.00;57.00
42227;DHT22;27892;52.378;13.122;2023-10-19T01:35:48;10.00;57.10
42227;DHT22;27892;52.378;13.122;2023-10-19T01:38:33;10.20;57.20
42227;DHT22;27892;52.378;13.122;2023-10-19T01:40:59;9.80;58.00
42227;DHT22;27892;52.378;13.122;2023-10-19T01:43:29;9.70;58.60
42227;DHT22;27892;52.378;13.122;2023-10-19T01:46:01;9.70;58.70
42227;DHT22;27892;52.378;13.122;2023-10-19T01:48:31;9.70;58.70
42227;DHT22;27892;52.378;13.122;2023-10-19T01:51:04;9.90;58.70
42227;DHT22;27892;52.378;13.122;2023-10-19T01:53:31;10.00;57.60
42227;DHT22;27892;52.378;13.122;2023-10-19T01:55:57;10.00;57.10
42227;DHT22;27892;52.378;13.122;2023-10-19T01:58:27;10.20;57.50
42227;DHT22;27892;52.378;13.122;2023-10-19T02:00:53;10.00;57.20
42227;DHT22;27892;52.378;13.122;2023-10-19T02:03:32;10.00;57.50
42227;DHT22;27892;52.378;13.122;2023-10-19T02:06:02;10.20;57.30
42227;DHT22;27892;52.378;13.122;2023-10-19T02:08:57;10.20;57.20
42227;DHT22;27892;52.378;13.122;2023-10-19T02:11:27;10.10;57.20
42227;DHT22;27892;52.378;13.122;2023-10-19T02:13:54;10.20;57.00
42227;DHT22;27892;52.378;13.122;2023-10-19T02:16:21;10.10;57.10
42227;DHT22;27892;52.378;13.122;2023-10-19T02:18:48;10.20;56.80
42227;DHT22;27892;52.378;13.122;2023-10-19T02:21:15;10.30;57.10
42227;DHT22;27892;52.378;13.122;2023-10-19T02:23:44;10.40;56.80
42227;DHT22;27892;52.378;13.122;2023-10-19T02:26:10;10.30;56.80
42227;DHT22;27892;52.378;13.122;2023-10-19T02:28:39;10.20;56.50
42227;DHT22;27892;52.378;13.122;2023-10-19T02:31:05;10.20;56.70
42227;DHT22;27892;52.378;13.122;2023-10-19T02:33:53;10.20;56.90
42227;DHT22;27892;52.378;13.122;2023-10-19T02:36:30;10.00;56.60
42227;DHT22;27892;52.378;13.122;2023-10-19T02:39:01;9.90;58.10
42227;DHT22;27892;52.378;13.122;2023-10-19T02:41:37;10.10;57.50
42227;DHT22;27892;52.378;13.122;2023-10-19T02:44:04;10.20;57.20
42227;DHT22;27892;52.378;13.122;2023-10-19T02:46:40;10.40;57.00
42227;DHT22;27892;52.378;13.122;2023-10-19T02:49:07;10.40;56.70
42227;DHT22;27892;52.378;13.122;2023-10-19T02:51:44;10.60;56.50
42227;DHT22;27892;52.378;13.122;2023-10-19T02:54:14;10.60;56.00
42227;DHT22;27892;52.378;13.122;2023-10-19T02:56:54;10.60;56.20
42227;DHT22;27892;52.378;13.122;2023-10-19T02:59:23;10.50;56.10
42227;DHT22;27892;52.378;13.122;2023-10-19T03:01:57;10.50;56.40
42227;DHT22;27892;52.378;13.122;2023-10-19T03:04:38;10.70;56.10
42227;DHT22;27892;52.378;13.122;2023-10-19T03:07:05;10.70;55.90
42227;DHT22;27892;52.378;13.122;2023-10-19T03:09:33;10.60;55.90
42227;DHT22;27892;52.378;13.122;2023-10-19T03:12:02;10.80;56.10
42227;DHT22;27892;52.378;13.122;2023-10-19T03:14:30;10.90;55.90
42227;DHT22;27892;52.378;13.122;2023-10-19T03:16:57;10.80;55.40
42227;DHT22;27892;52.378;13.122;2023-10-19T03:19:24;10.70;55.90
42227;DHT22;27892;52.378;13.122;2023-10-19T03:21:51;10.70;55.90
42227;DHT22;27892;52.378;13.122;2023-10-19T03:24:18;10.70;55.80
42227;DHT22;27892;52.378;13.122;2023-10-19T03:27:04;10.80;55.80
42227;DHT22;27892;52.378;13.122;2023-10-19T03:29:44;10.90;55.70
42227;DHT22;27892;52.378;13.122;2023-10-19T03:32:14;10.80;55.60
42227;DHT22;27892;52.378;13.122;2023-10-19T03:34:41;10.80;55.70
42227;DHT22;27892;52.378;13.122;2023-10-19T03:37:13;10.80;55.80
42227;DHT22;27892;52.378;13.122;2023-10-19T03:39:41;10.80;55.60
42227;DHT22;27892;52.378;13.122;2023-10-19T03:42:06;10.90;55.60
42227;DHT22;27892;52.378;13.122;2023-10-19T03:44:33;10.50;55.90
42227;DHT22;27892;52.378;13.122;2023-10-19T03:47:19;10.40;56.20
42227;DHT22;27892;52.378;13.122;2023-10-19T03:49:48;10.40;56.70
42227;DHT22;27892;52.378;13.122;2023-10-19T03:52:16;10.50;56.40
42227;DHT22;27892;52.378;13.122;2023-10-19T03:54:44;10.70;56.30
42227;DHT22;27892;52.378;13.122;2023-10-19T03:57:13;10.50;56.00
42227;DHT22;27892;52.378;13.122;2023-10-19T03:59:55;10.10;56.70
42227;DHT22;27892;52.378;13.122;2023-10-19T04:02:27;10.10;57.20
42227;DHT22;27892;52.378;13.122;2023-10-19T04:05:03;10.20;56.60
42227;DHT22;27892;52.378;13.122;2023-10-19T04:07:29;10.10;57.10
42227;DHT22;27892;52.378;13.122;2023-10-19T04:09:57;10.10;57.20
42227;DHT22;27892;52.378;13.122;2023-10-19T04:12:32;10.10;57.50
42227;DHT22;27892;52.378;13.122;2023-10-19T04:14:59;10.40;56.90
42227;DHT22;27892;52.378;13.122;2023-10-19T04:17:44;10.40;56.80
42227;DHT22;27892;52.378;13.122;2023-10-19T04:20:11;10.60;56.50
42227;DHT22;27892;52.378;13.122;2023-10-19T04:22:49;10.50;56.00
42227;DHT22;27892;52.378;13.122;2023-10-19T04:25:17;10.30;56.40
42227;DHT22;27892;52.378;13.122;2023-10-19T04:27:47;10.30;57.00
42227;DHT22;27892;52.378;13.122;2023-10-19T04:30:15;10.40;56.60
42227;DHT22;27892;52.378;13.122;2023-10-19T04:32:48;10.00;57.00
42227;DHT22;27892;52.378;13.122;2023-10-19T04:35:16;10.20;57.40
42227;DHT22;27892;52.378;13.122;2023-10-19T04:37:51;10.30;57.20
42227;DHT22;27892;52.378;13.122;2023-10-19T04:40:18;10.60;56.90
42227;DHT22;27892;52.378;13.122;2023-10-19T04:42:45;10.50;56.60
42227;DHT22;27892;52.378;13.122;2023-10-19T04:45:14;10.40;56.70
42227;DHT22;27892;52.378;13.122;2023-10-19T04:47:40;10.50;56.80
42227;DHT22;27892;52.378;13.122;2023-10-19T04:50:07;10.60;56.40
42227;DHT22;27892;52.378;13.122;2023-10-19T04:52:33;10.60;56.70
42227;DHT22;27892;52.378;13.122;2023-10-19T04:54:59;10.70;56.40
42227;DHT22;27892;52.378;13.122;2023-10-19T04:57:25;10.80;56.40
42227;DHT22;27892;52.378;13.122;2023-10-19T04:59:54;10.60;56.30
42227;DHT22;27892;52.378;13.122;2023-10-19T05:02:20;10.40;56.50
42227;DHT22;27892;52.378;13.122;2023-10-19T05:04:46;10.50;57.00
42227;DHT22;27892;52.378;13.122;2023-10-19T05:07:12;10.50;56.90
42227;DHT22;27892;52.378;13.122;2023-10-19T05:09:40;10.50;57.00
42227;DHT22;27892;52.378;13.122;2023-10-19T05:12:06;10.60;57.40
42227;DHT22;27892;52.378;13.122;2023-10-19T05:14:35;10.50;57.80
42227;DHT22;27892;52.378;13.122;2023-10-19T05:17:02;10.40;58.50
42227;DHT22;27892;52.378;13.122;2023-10-19T05:19:34;10.20;58.80
42227;DHT22;27892;52.378;13.122;2023-10-19T05:22:01;10.20;59.30
42227;DHT22;27892;52.378;13.122;2023-10-19T05:24:27;9.90;60.50
42227;DHT22;27892;52.378;13.122;2023-10-19T05:26:56;9.90;61.30
42227;DHT22;27892;52.378;13.122;2023-10-19T05:29:22;10.00;60.70
42227;DHT22;27892;52.378;13.122;2023-10-19T05:31:50;10.10;60.80
42227;DHT22;27892;52.378;13.122;2023-10-19T05:34:21;10.20;60.30
42227;DHT22;27892;52.378;13.122;2023-10-19T05:36:47;10.20;60.40
42227;DHT22;27892;52.378;13.122;2023-10-19T05:39:17;10.00;60.50
42227;DHT22;27892;52.378;13.122;2023-10-19T05:41:43;10.00;60.90
42227;DHT22;27892;52.378;13.122;2023-10-19T05:44:10;10.00;61.30
42227;DHT22;27892;52.378;13.122;2023-10-19T05:46:35;10.00;61.50
42227;DHT22;27892;52.378;13.122;2023-10-19T05:49:02;10.00;61.90
42227;DHT22;27892;52.378;13.122;2023-10-19T05:51:30;9.90;63.40
42227;DHT22;27892;52.378;13.122;2023-10-19T05:53:55;9.90;63.60
42227;DHT22;27892;52.378;13.122;2023-10-19T05:56:28;9.80;64.50
42227;DHT22;27892;52.378;13.122;2023-10-19T05:58:53;9.90;64.80
42227;DHT22;27892;52.378;13.122;2023-10-19T06:01:19;9.90;65.20
42227;DHT22;27892;52.378;13.122;2023-10-19T06:03:45;10.00;63.60
42227;DHT22;27892;52.378;13.122;2023-10-19T06:06:11;10.00;63.50
42227;DHT22;27892;52.378;13.122;2023-10-19T06:08:37;10.00;63.80
42227;DHT22;27892;52.378;13.122;2023-10-19T06:11:02;10.00;63.80
42227;DHT22;27892;52.378;13.122;2023-10-19T06:13:28;9.80;64.90
42227;DHT22;27892;52.378;13.122;2023-10-19T06:15:55;9.90;65.50
42227;DHT22;27892;52.378;13.122;2023-10-19T06:18:20;10.00;64.50
42227;DHT22;27892;52.378;13.122;2023-10-19T06:20:47;10.00;64.10
42227;DHT22;27892;52.378;13.122;2023-10-19T06:23:13;10.00;64.20
42227;DHT22;27892;52.378;13.122;2023-10-19T06:25:39;9.90;65.00
42227;DHT22;27892;52.378;13.122;2023-10-19T06:28:05;9.80;65.60
42227;DHT22;27892;52.378;13.122;2023-10-19T06:30:32;9.70;65.30
42227;DHT22;27892;52.378;13.122;2023-10-19T06:33:00;9.70;65.60
42227;DHT22;27892;52.378;13.122;2023-10-19T06:35:30;9.90;65.50
42227;DHT22;27892;52.378;13.122;2023-10-19T06:38:02;10.00;64.10
42227;DHT22;27892;52.378;13.122;2023-10-19T06:40:33;10.20;64.30
42227;DHT22;27892;52.378;13.122;2023-10-19T06:43:03;10.30;64.30
42227;DHT22;27892;52.378;13.122;2023-10-19T06:45:29;10.30;63.80
42227;DHT22;27892;52.378;13.122;2023-10-19T06:47:55;10.30;63.30
42227;DHT22;27892;52.378;13.122;2023-10-19T06:50:22;10.30;63.20
42227;DHT22;27892;52.378;13.122;2023-10-19T06:52:49;10.20;64.00
42227;DHT22;27892;52.378;13.122;2023-10-19T06:55:16;10.20;63.80
42227;DHT22;27892;52.378;13.122;2023-10-19T06:57:44;10.20;63.60
42227;DHT22;27892;52.378;13.122;2023-10-19T07:00:14;10.30;63.80
42227;DHT22;27892;52.378;13.122;2023-10-19T07:02:43;10.30;63.70
42227;DHT22;27892;52.378;13.122;2023-10-19T07:05:10;10.40;63.90
42227;DHT22;27892;52.378;13.122;2023-10-19T07:07:38;10.50;63.70
42227;DHT22;27892;52.378;13.122;2023-10-19T07:10:09;10.40;63.00
42227;DHT22;27892;52.378;13.122;2023-10-19T07:12:43;10.30;63.20
42227;DHT22;27892;52.378;13.122;2023-10-19T07:15:10;10.30;63.70
42227;DHT22;27892;52.378;13.122;2023-10-19T07:17:48;10.10;63.50
42227;DHT22;27892;52.378;13.122;2023-10-19T07:20:15;9.80;65.50
42227;DHT22;27892;52.378;13.122;2023-10-19T07:23:04;9.70;65.70
42227;DHT22;27892;52.378;13.122;2023-10-19T07:25:36;9.70;66.10
42227;DHT22;27892;52.378;13.122;2023-10-19T07:28:14;9.90;66.50
42227;DHT22;27892;52.378;13.122;2023-10-19T07:30:41;10.00;64.20
42227;DHT22;27892;52.378;13.122;2023-10-19T07:33:08;10.20;64.60
42227;DHT22;27892;52.378;13.122;2023-10-19T07:35:36;10.30;64.60
42227;DHT22;27892;52.378;13.122;2023-10-19T07:38:08;10.50;64.60
42227;DHT22;27892;52.378;13.122;2023-10-19T07:40:34;10.50;64.40
42227;DHT22;27892;52.378;13.122;2023-10-19T07:43:00;10.50;64.50
42227;DHT22;27892;52.378;13.122;2023-10-19T07:45:26;10.70;64.60
42227;DHT22;27892;52.378;13.122;2023-10-19T07:47:52;10.70;64.60
42227;DHT22;27892;52.378;13.122;2023-10-19T07:50:19;10.70;64.30
42227;DHT22;27892;52.378;13.122;2023-10-19T07:52:50;10.80;64.40
42227;DHT22;27892;52.378;13.122;2023-10-19T07:55:18;10.70;63.60
42227;DHT22;27892;52.378;13.122;2023-10-19T07:57:44;10.70;64.30
42227;DHT22;27892;52.378;13.122;2023-10-19T08:00:12;10.80;64.40
42227;DHT22;27892;52.378;13.122;2023-10-19T08:02:40;10.90;64.20
42227;DHT22;27892;52.378;13.122;2023-10-19T08:05:13;10.80;63.90
42227;DHT22;27892;52.378;13.122;2023-10-19T08:07:40;10.90;64.70
42227;DHT22;27892;52.378;13.122;2023-10-19T08:10:09;10.80;64.40
42227;DHT22;27892;52.378;13.122;2023-10-19T08:12:36;10.90;64.50
42227;DHT22;27892;52.378;13.122;2023-10-19T08:15:02;11.00;64.30
42227;DHT22;27892;52.378;13.122;2023-10-19T08:17:29;11.00;64.30
42227;DHT22;27892;52.378;13.122;2023-10-19T08:19:55;10.90;65.00
42227;DHT22;27892;52.378;13.122;2023-10-19T08:22:22;10.90;64.70
42227;DHT22;27892;52.378;13.122;2023-10-19T08:24:49;10.80;64.70
42227;DHT22;27892;52.378;13.122;2023-10-19T08:27:15;10.80;64.20
42227;DHT22;27892;52.378;13.122;2023-10-19T08:29:43;10.90;64.60
42227;DHT22;27892;52.378;13.122;2023-10-19T08:32:08;10.90;64.40
42227;DHT22;27892;52.378;13.122;2023-10-19T08:34:38;10.90;64.80
42227;DHT22;27892;52.378;13.122;2023-10-19T08:37:05;11.00;64.90
42227;DHT22;27892;52.378;13.122;2023-10-19T08:39:32;11.00;64.10
42227;DHT22;27892;52.378;13.122;2023-10-19T08:42:05;10.80;64.40
42227;DHT22;27892;52.378;13.122;2023-10-19T08:44:34;10.50;64.70
42227;DHT22;27892;52.378;13.122;2023-10-19T08:47:01;10.40;65.50
42227;DHT22;27892;52.378;13.122;2023-10-19T08:49:27;10.50;66.00
42227;DHT22;27892;52.378;13.122;2023-10-19T08:51:54;10.30;65.90
42227;DHT22;27892;52.378;13.122;2023-10-19T08:54:20;10.50;66.60
42227;DHT22;27892;52.378;13.122;2023-10-19T08:56:46;10.50;66.90
42227;DHT22;27892;52.378;13.122;2023-10-19T08:59:13;10.50;66.50
42227;DHT22;27892;52.378;13.122;2023-10-19T09:01:42;10.70;66.80
42227;DHT22;27892;52.378;13.122;2023-10-19T09:04:11;10.70;66.80
42227;DHT22;27892;52.378;13.122;2023-10-19T09:06:38;10.60;66.90
42227;DHT22;27892;52.378;13.122;2023-10-19T09:09:09;10.70;67.50
42227;DHT22;27892;52.378;13.122;2023-10-19T09:11:40;10.80;67.40
42227;DHT22;27892;52.378;13.122;2023-10-19T09:14:06;10.60;66.90
42227;DHT22;27892;52.378;13.122;2023-10-19T09:16:32;10.70;67.90
42227;DHT22;27892;52.378;13.122;2023-10-19T09:18:58;10.80;67.90
42227;DHT22;27892;52.378;13.122;2023-10-19T09:21:23;10.90;68.00
42227;DHT22;27892;52.378;13.122;2023-10-19T09:23:55;10.60;68.00
42227;DHT22;27892;52.378;13.122;2023-10-19T09:26:21;10.60;68.20
42227;DHT22;27892;52.378;13.122;2023-10-19T09:28:51;10.50;69.00
42227;DHT22;27892;52.378;13.122;2023-10-19T09:31:18;10.40;69.30
42227;DHT22;27892;52.378;13.122;2023-10-19T09:33:47;10.50;70.00
42227;DHT22;27892;52.378;13.122;2023-10-19T09:36:14;10.80;69.80
42227;DHT22;27892;52.378;13.122;2023-10-19T09:38:47;10.90;69.40
42227;DHT22;27892;52.378;13.122;2023-10-19T09:41:24;11.10;69.30
42227;DHT22;27892;52.378;13.122;2023-10-19T09:43:58;11.00;68.80
42227;DHT22;27892;52.378;13.122;2023-10-19T09:46:31;11.10;69.00
42227;DHT22;27892;52.378;13.122;2023-10-19T09:48:57;11.00;68.80
42227;DHT22;27892;52.378;13.122;2023-10-19T09:51:24;11.10;69.00
42227;DHT22;27892;52.378;13.122;2023-10-19T09:54:01;11.10;69.00
42227;DHT22;27892;52.378;13.122;2023-10-19T09:56:36;11.10;69.20
42227;DHT22;27892;52.378;13.122;2023-10-19T09:59:06;11.00;69.10
42227;DHT22;27892;52.378;13.122;2023-10-19T10:02:12;10.90;69.40
42227;DHT22;27892;52.378;13.122;2023-10-19T10:04:40;10.80;70.00
42227;DHT22;27892;52.378;13.122;2023-10-19T10:07:08;10.90;70.00
42227;DHT22;27892;52.378;13.122;2023-10-19T10:09:42;11.00;69.90
42227;DHT22;27892;52.378;13.122;2023-10-19T10:12:21;10.80;70.00
42227;DHT22;27892;52.378;13.122;2023-10-19T10:14:59;10.70;70.60
42227;DHT22;27892;52.378;13.122;2023-10-19T10:17:28;10.70;71.10
42227;DHT22;27892;52.378;13.122;2023-10-19T10:22:43;11.00;71.30
42227;DHT22;27892;52.378;13.122;2023-10-19T10:25:25;10.90;71.10
42227;DHT22;27892;52.378;13.122;2023-10-19T10:27:53;11.10;71.60
42227;DHT22;27892;52.378;13.122;2023-10-19T10:30:18;11.10;71.10
42227;DHT22;27892;52.378;13.122;2023-10-19T10:32:45;11.10;70.80
42227;DHT22;27892;52.378;13.122;2023-10-19T10:38:09;11.20;71.30
42227;DHT22;27892;52.378;13.122;2023-10-19T10:40:46;11.20;70.60
42227;DHT22;27892;52.378;13.122;2023-10-19T10:43:17;11.20;71.20
42227;DHT22;27892;52.378;13.122;2023-10-19T10:45:43;11.00;72.00
42227;DHT22;27892;52.378;13.122;2023-10-19T10:50:38;10.90;73.20
42227;DHT22;27892;52.378;13.122;2023-10-19T10:53:05;10.80;72.80
42227;DHT22;27892;52.378;13.122;2023-10-19T10:55:30;10.70;72.80
42227;DHT22;27892;52.378;13.122;2023-10-19T10:57:58;10.80;73.80
42227;DHT22;27892;52.378;13.122;2023-10-19T11:00:27;10.90;73.90
42227;DHT22;27892;52.378;13.122;2023-10-19T11:03:07;11.10;74.10
42227;DHT22;27892;52.378;13.122;2023-10-19T11:05:34;11.20;74.00
42227;DHT22;27892;52.378;13.122;2023-10-19T11:08:11;11.30;73.70
42227;DHT22;27892;52.378;13.122;2023-10-19T11:10:43;11.30;73.20
42227;DHT22;27892;52.378;13.122;2023-10-19T11:13:13;11.20;72.80
42227;DHT22;27892;52.378;13.122;2023-10-19T11:15:46;11.20;73.70
42227;DHT22;27892;52.378;13.122;2023-10-19T11:18:37;11.20;74.10
42227;DHT22;27892;52.378;13.122;2023-10-19T11:21:13;11.00;73.80
42227;DHT22;27892;52.378;13.122;2023-10-19T11:23:47;10.90;74.50
42227;DHT22;27892;52.378;13.122;2023-10-19T11:26:19;11.10;75.60
42227;DHT22;27892;52.378;13.122;2023-10-19T11:28:45;11.30;75.20
42227;DHT22;27892;52.378;13.122;2023-10-19T11:31:20;11.40;74.80
42227;DHT22;27892;52.378;13.122;2023-10-19T11:33:51;11.20;74.60
42227;DHT22;27892;52.378;13.122;2023-10-19T11:36:19;11.30;74.90
42227;DHT22;27892;52.378;13.122;2023-10-19T11:38:47;11.30;74.70
42227;DHT22;27892;52.378;13.122;2023-10-19T11:41:14;11.40;74.80
42227;DHT22;27892;52.378;13.122;2023-10-19T11:43:41;11.30;75.70
42227;DHT22;27892;52.378;13.122;2023-10-19T11:46:07;11.40;75.50
42227;DHT22;27892;52.378;13.122;2023-10-19T11:48:34;11.40;74.60
42227;DHT22;27892;52.378;13.122;2023-10-19T11:51:01;11.40;75.20
42227;DHT22;27892;52.378;13.122;2023-10-19T11:53:33;11.50;75.50
42227;DHT22;27892;52.378;13.122;2023-10-19T11:56:05;11.30;74.90
42227;DHT22;27892;52.378;13.122;2023-10-19T11:58:32;11.30;75.20
42227;DHT22;27892;52.378;13.122;2023-10-19T12:01:02;11.30;75.60
42227;DHT22;27892;52.378;13.122;2023-10-19T12:03:34;11.30;75.50
42227;DHT22;27892;52.378;13.122;2023-10-19T12:06:05;11.20;75.00
42227;DHT22;27892;52.378;13.122;2023-10-19T12:08:34;11.00;75.90
42227;DHT22;27892;52.378;13.122;2023-10-19T12:11:01;11.20;76.20
42227;DHT22;27892;52.378;13.122;2023-10-19T12:13:28;11.20;76.00
42227;DHT22;27892;52.378;13.122;2023-10-19T12:15:54;11.20;75.90
42227;DHT22;27892;52.378;13.122;2023-10-19T12:18:26;11.10;75.60
42227;DHT22;27892;52.378;13.122;2023-10-19T12:20:54;11.20;76.50
42227;DHT22;27892;52.378;13.122;2023-10-19T12:23:22;11.30;76.70
42227;DHT22;27892;52.378;13.122;2023-10-19T12:25:49;11.30;75.90
42227;DHT22;27892;52.378;13.122;2023-10-19T12:28:14;11.30;75.70
42227;DHT22;27892;52.378;13.122;2023-10-19T12:30:41;11.20;75.00
42227;DHT22;27892;52.378;13.122;2023-10-19T12:33:07;11.20;75.70
42227;DHT22;27892;52.378;13.122;2023-10-19T12:35:46;11.10;76.00
42227;DHT22;27892;52.378;13.122;2023-10-19T12:38:18;11.20;76.60
42227;DHT22;27892;52.378;13.122;2023-10-19T12:40:49;11.10;76.20
42227;DHT22;27892;52.378;13.122;2023-10-19T12:43:16;11.20;76.50
42227;DHT22;27892;52.378;13.122;2023-10-19T12:45:44;11.10;76.90
42227;DHT22;27892;52.378;13.122;2023-10-19T12:48:16;11.10;77.00
42227;DHT22;27892;52.378;13.122;2023-10-19T12:50:42;11.10;76.50
42227;DHT22;27892;52.378;13.122;2023-10-19T12:53:08;11.20;77.00
42227;DHT22;27892;52.378;13.122;2023-10-19T12:55:35;11.30;77.30
42227;DHT22;27892;52.378;13.122;2023-10-19T12:58:04;11.20;76.80
42227;DHT22;27892;52.378;13.122;2023-10-19T13:00:37;11.10;76.60
42227;DHT22;27892;52.378;13.122;2023-10-19T13:03:14;11.30;77.20
42227;DHT22;27892;52.378;13.122;2023-10-19T13:05:42;11.10;76.50
42227;DHT22;27892;52.378;13.122;2023-10-19T13:08:11;11.20;76.60
42227;DHT22;27892;52.378;13.122;2023-10-19T13:10:42;10.80;76.90
42227;DHT22;27892;52.378;13.122;2023-10-19T13:13:10;11.00;78.30
42227;DHT22;27892;52.378;13.122;2023-10-19T13:15:40;11.10;77.60
42227;DHT22;27892;52.378;13.122;2023-10-19T13:18:08;11.00;77.20
42227;DHT22;27892;52.378;13.122;2023-10-19T13:20:37;11.20;77.60
42227;DHT22;27892;52.378;13.122;2023-10-19T13:23:07;11.20;76.90
42227;DHT22;27892;52.378;13.122;2023-10-19T13:25:38;11.10;77.90
42227;DHT22;27892;52.378;13.122;2023-10-19T13:28:20;11.20;78.10
42227;DHT22;27892;52.378;13.122;2023-10-19T13:30:48;11.30;77.80
42227;DHT22;27892;52.378;13.122;2023-10-19T13:33:14;11.30;77.80
42227;DHT22;27892;52.378;13.122;2023-10-19T13:35:42;11.30;77.10
42227;DHT22;27892;52.378;13.122;2023-10-19T13:38:08;11.40;77.60
42227;DHT22;27892;52.378;13.122;2023-10-19T13:40:35;11.30;77.00
42227;DHT22;27892;52.378;13.122;2023-10-19T13:43:02;11.30;76.90
42227;DHT22;27892;52.378;13.122;2023-10-19T13:45:32;11.30;77.10
42227;DHT22;27892;52.378;13.122;2023-10-19T13:48:05;11.10;77.60
42227;DHT22;27892;52.378;13.122;2023-10-19T13:50:32;10.60;78.80
42227;DHT22;27892;52.378;13.122;2023-10-19T13:52:59;10.80;79.90
42227;DHT22;27892;52.378;13.122;2023-10-19T13:55:26;11.00;79.90
42227;DHT22;27892;52.378;13.122;2023-10-19T13:57:52;11.00;78.40
42227;DHT22;27892;52.378;13.122;2023-10-19T14:00:20;11.10;79.00
42227;DHT22;27892;52.378;13.122;2023-10-19T14:03:13;11.20;78.80
42227;DHT22;27892;52.378;13.122;2023-10-19T14:05:43;11.30;78.60
42227;DHT22;27892;52.378;13.122;2023-10-19T14:08:13;11.20;78.00
42227;DHT22;27892;52.378;13.122;2023-10-19T14:10:39;11.20;78.60
42227;DHT22;27892;52.378;13.122;2023-10-19T14:13:07;11.30;78.60
42227;DHT22;27892;52.378;13.122;2023-10-19T14:15:33;11.20;78.60
42227;DHT22;27892;52.378;13.122;2023-10-19T14:18:00;11.30;78.30
42227;DHT22;27892;52.378;13.122;2023-10-19T14:20:29;11.20;78.70
42227;DHT22;27892;52.378;13.122;2023-10-19T14:22:55;11.20;79.00
42227;DHT22;27892;52.378;13.122;2023-10-19T14:25:21;11.20;78.30
42227;DHT22;27892;52.378;13.122;2023-10-19T14:27:51;11.30;78.60
42227;DHT22;27892;52.378;13.122;2023-10-19T14:30:22;11.20;78.30
42227;DHT22;27892;52.378;13.122;2023-10-19T14:32:49;11.10;78.30
42227;DHT22;27892;52.378;13.122;2023-10-19T14:35:18;11.10;78.20
42227;DHT22;27892;52.378;13.122;2023-10-19T14:37:47;10.70;79.00
42227;DHT22;27892;52.378;13.122;2023-10-19T14:40:20;10.70;80.20
42227;DHT22;27892;52.378;13.122;2023-10-19T14:42:47;10.80;80.30
42227;DHT22;27892;52.378;13.122;2023-10-19T14:45:17;10.90;79.80
42227;DHT22;27892;52.378;13.122;2023-10-19T14:47:47;11.00;79.70
42227;DHT22;27892;52.378;13.122;2023-10-19T14:50:14;11.10;80.10
42227;DHT22;27892;52.378;13.122;2023-10-19T14:52:41;11.20;78.90
42227;DHT22;27892;52.378;13.122;2023-10-19T14:55:08;11.10;77.80
42227;DHT22;27892;52.378;13.122;2023-10-19T14:57:36;11.10;78.80
42227;DHT22;27892;52.378;13.122;2023-10-19T15:00:06;11.00;78.60
42227;DHT22;27892;52.378;13.122;2023-10-19T15:02:55;11.20;78.90
42227;DHT22;27892;52.378;13.122;2023-10-19T15:05:25;11.30;78.40
42227;DHT22;27892;52.378;13.122;2023-10-19T15:07:52;11.30;78.30
42227;DHT22;27892;52.378;13.122;2023-10-19T15:10:28;11.30;78.30
42227;DHT22;27892;52.378;13.122;2023-10-19T15:12:55;11.40;78.10
42227;DHT22;27892;52.378;13.122;2023-10-19T15:15:25;11.30;77.20
42227;DHT22;27892;52.378;13.122;2023-10-19T15:17:51;11.10;76.70
42227;DHT22;27892;52.378;13.122;2023-10-19T15:20:27;11.10;77.80
42227;DHT22;27892;52.378;13.122;2023-10-19T15:22:53;10.90;78.30
42227;DHT22;27892;52.378;13.122;2023-10-19T15:25:19;11.00;79.00
42227;DHT22;27892;52.378;13.122;2023-10-19T15:27:47;11.10;78.80
42227;DHT22;27892;52.378;13.122;2023-10-19T15:30:16;11.10;78.10
42227;DHT22;27892;52.378;13.122;2023-10-19T15:32:43;11.00;78.40
42227;DHT22;27892;52.378;13.122;2023-10-19T15:35:11;11.10;78.90
42227;DHT22;27892;52.378;13.122;2023-10-19T15:37:39;11.10;78.60
42227;DHT22;27892;52.378;13.122;2023-10-19T15:40:05;11.20;78.70
42227;DHT22;27892;52.378;13.122;2023-10-19T15:42:31;11.10;78.10
42227;DHT22;27892;52.378;13.122;2023-10-19T15:45:00;11.20;78.80